Time;durP1;ratioP1;P1;durP2;ratioP2;P2;SDS_P1;SDS_P2;PMS_P1;PMS_P2;Temp;Humidity;BMP_temperature;BMP_pressure;BME280_temperature;BME280_humidity;BME280_pressure;Samples;Min_cycle;Max_cycle;Signal;HPM_P1;HPM_P2
2021/06/10 00:00:05;;;;;;;0.90;0.50;;;17.20;71.80;;;;;;4768944;29;20046;-86
2021/06/10 00:02:39;;;;;;;2.08;0.47;;;17.20;72.20;;;;;;4802882;29;20039;-85
2021/06/10 00:05:08;;;;;;;1.33;0.40;;;17.20;71.50;;;;;;4799221;29;20046;-86
2021/06/10 00:07:36;;;;;;;0.82;0.40;;;17.10;71.30;;;;;;4782429;29;20421;-86
2021/06/10 00:10:09;;;;;;;1.15;0.47;;;17.10;71.20;;;;;;4799203;29;20380;-85
2021/06/10 00:12:37;;;;;;;0.80;0.47;;;17.10;71.20;;;;;;4783563;29;20046;-84
2021/06/10 00:15:08;;;;;;;2.08;0.50;;;17.00;71.10;;;;;;4768388;29;20045;-85
2021/06/10 00:17:37;;;;;;;1.58;0.50;;;17.10;71.20;;;;;;4777666;29;20047;-86
2021/06/10 00:20:07;;;;;;;1.10;0.40;;;17.10;71.20;;;;;;4773647;29;20047;-83
2021/06/10 00:22:34;;;;;;;1.20;0.60;;;17.00;71.10;;;;;;4785098;29;20039;-85
2021/06/10 00:25:01;;;;;;;1.20;0.50;;;17.00;71.10;;;;;;4770931;29;20034;-84
2021/06/10 00:27:27;;;;;;;2.67;0.50;;;17.00;71.10;;;;;;4782773;29;20042;-82
2021/06/10 00:30:10;;;;;;;1.85;0.55;;;17.00;71.30;;;;;;4785787;29;20047;-83
2021/06/10 00:32:37;;;;;;;1.00;0.50;;;17.00;71.40;;;;;;4779941;29;20419;-82
2021/06/10 00:35:05;;;;;;;1.42;0.70;;;16.90;71.50;;;;;;4800244;29;20501;-82
2021/06/10 00:37:31;;;;;;;0.88;0.43;;;16.90;71.60;;;;;;4782672;29;20059;-83
2021/06/10 00:39:58;;;;;;;2.20;0.50;;;16.90;71.60;;;;;;4756058;29;20518;-82
2021/06/10 00:42:24;;;;;;;1.17;0.50;;;16.90;71.60;;;;;;4772107;29;20046;-81
2021/06/10 00:44:51;;;;;;;1.40;0.57;;;16.80;71.50;;;;;;4757757;29;20049;-82
2021/06/10 00:47:17;;;;;;;1.05;0.30;;;16.80;71.30;;;;;;4769592;29;20042;-83
2021/06/10 00:49:44;;;;;;;1.80;0.50;;;16.80;71.10;;;;;;4784932;29;20055;-82
2021/06/10 00:52:12;;;;;;;1.08;0.40;;;16.80;71.70;;;;;;4801534;29;20546;-82
2021/06/10 00:54:39;;;;;;;1.95;0.47;;;16.80;71.10;;;;;;4784879;29;20051;-82
2021/06/10 00:57:06;;;;;;;2.25;0.40;;;16.80;71.00;;;;;;4798281;29;20061;-82
2021/06/10 00:59:33;;;;;;;1.35;0.47;;;16.80;71.10;;;;;;4770305;29;20066;-82
2021/06/10 01:02:00;;;;;;;1.10;0.40;;;16.80;70.80;;;;;;4771957;29;20031;-81
2021/06/10 01:04:27;;;;;;;1.15;0.40;;;16.80;70.70;;;;;;4756776;29;20042;-82
2021/06/10 01:07:01;;;;;;;1.13;0.50;;;16.80;70.50;;;;;;4773066;29;20046;-82
2021/06/10 01:09:42;;;;;;;1.52;0.40;;;16.80;70.40;;;;;;4788011;29;20043;-83
2021/06/10 01:12:30;;;;;;;0.88;0.40;;;16.80;70.20;;;;;;4803281;29;20532;-82
2021/06/10 01:15:11;;;;;;;0.93;0.40;;;16.80;70.00;;;;;;4802425;29;20056;-82
2021/06/10 01:17:46;;;;;;;3.28;0.40;;;16.80;69.90;;;;;;4785497;29;20050;-82
2021/06/10 01:20:13;;;;;;;0.80;0.30;;;16.70;69.70;;;;;;4801164;29;20043;-82
2021/06/10 01:22:58;;;;;;;2.67;0.40;;;16.70;69.70;;;;;;4789425;29;20047;-83
2021/06/10 01:25:45;;;;;;;0.60;0.30;;;16.70;69.70;;;;;;4777023;29;20031;-82
2021/06/10 01:28:25;;;;;;;1.60;0.40;;;16.70;69.70;;;;;;4793014;29;20538;-83
2021/06/10 01:31:02;;;;;;;0.82;0.30;;;16.70;69.60;;;;;;4785915;29;20042;-83
2021/06/10 01:33:47;;;;;;;1.10;0.40;;;16.70;69.60;;;;;;4789598;29;20043;-84
2021/06/10 01:36:27;;;;;;;1.67;0.50;;;16.70;69.70;;;;;;4791214;29;20042;-83
2021/06/10 01:38:57;;;;;;;1.27;0.40;;;16.70;69.70;;;;;;4789044;29;20516;-84
2021/06/10 01:41:26;;;;;;;0.77;0.40;;;16.70;69.70;;;;;;4788305;29;20046;-83
2021/06/10 01:43:53;;;;;;;2.95;0.50;;;16.60;70.40;;;;;;4801920;29;20406;-85
2021/06/10 01:46:25;;;;;;;1.05;0.50;;;16.60;69.90;;;;;;4783207;29;20043;-83
2021/06/10 01:48:53;;;;;;;1.23;0.50;;;16.60;70.20;;;;;;4788367;29;20054;-84
2021/06/10 01:51:23;;;;;;;0.90;0.47;;;16.60;70.20;;;;;;4783045;29;20055;-82
2021/06/10 01:53:51;;;;;;;1.33;0.52;;;16.60;70.50;;;;;;4783622;29;20058;-87
2021/06/10 01:56:21;;;;;;;2.10;0.50;;;16.50;70.50;;;;;;4769645;29;20447;-82
2021/06/10 01:58:49;;;;;;;1.58;0.63;;;16.50;70.60;;;;;;4784276;29;20042;-84
2021/06/10 02:01:17;;;;;;;2.22;0.55;;;16.40;70.90;;;;;;4769434;29;20493;-82
2021/06/10 02:03:45;;;;;;;2.35;0.50;;;16.40;71.30;;;;;;4786379;29;20047;-86
2021/06/10 02:06:13;;;;;;;1.55;0.60;;;16.40;71.80;;;;;;4786596;29;20051;-84
2021/06/10 02:08:41;;;;;;;1.02;0.50;;;16.30;72.40;;;;;;4786253;29;20042;-85
2021/06/10 02:11:09;;;;;;;0.82;0.40;;;16.30;72.90;;;;;;4787103;29;20045;-84
2021/06/10 02:13:36;;;;;;;1.10;0.50;;;16.20;73.30;;;;;;4775789;29;20047;-85
2021/06/10 02:16:06;;;;;;;1.00;0.47;;;16.10;73.60;;;;;;4775571;29;20045;-84
2021/06/10 02:18:34;;;;;;;1.30;0.68;;;16.10;74.40;;;;;;4771903;29;20636;-85
2021/06/10 02:21:07;;;;;;;1.55;0.60;;;16.00;75.00;;;;;;4769615;29;20035;-84
2021/06/10 02:23:41;;;;;;;1.50;0.82;;;15.90;75.30;;;;;;4783224;29;20055;-84
2021/06/10 02:26:09;;;;;;;1.05;0.60;;;15.90;75.50;;;;;;4782883;29;20069;-85
2021/06/10 02:28:36;;;;;;;3.28;0.73;;;15.90;75.70;;;;;;4758308;29;20051;-80
2021/06/10 02:31:05;;;;;;;1.92;0.73;;;15.80;76.20;;;;;;4798871;29;20043;-82
2021/06/10 02:33:31;;;;;;;1.73;0.73;;;15.80;76.50;;;;;;4781074;29;20042;-82
2021/06/10 02:35:58;;;;;;;1.17;0.70;;;15.70;76.90;;;;;;4798646;29;20039;-83
2021/06/10 02:38:28;;;;;;;4.43;0.80;;;15.60;77.20;;;;;;4757167;29;20066;-82
2021/06/10 02:40:58;;;;;;;;;;;15.60;77.70;;;;;;4799218;29;20049;-81
2021/06/10 02:43:27;;;;;;;1.70;0.90;;;15.60;78.00;;;;;;4800454;29;19917;-81
2021/06/10 02:45:54;;;;;;;2.38;0.68;;;15.60;79.10;;;;;;4783827;29;20067;-82
2021/06/10 02:48:21;;;;;;;1.15;0.70;;;15.50;78.90;;;;;;4770921;29;20062;-82
2021/06/10 02:50:51;;;;;;;1.13;0.70;;;15.50;79.30;;;;;;4784500;29;20086;-81
2021/06/10 02:53:20;;;;;;;1.58;0.70;;;15.50;79.50;;;;;;4802376;29;20050;-81
2021/06/10 02:55:49;;;;;;;0.95;0.57;;;15.40;79.70;;;;;;4769956;29;20057;-81
2021/06/10 02:58:21;;;;;;;1.75;0.68;;;15.40;80.90;;;;;;4785073;29;20055;-81
2021/06/10 03:00:48;;;;;;;2.47;0.88;;;15.40;80.70;;;;;;4788507;29;20035;-81
2021/06/10 03:03:16;;;;;;;1.70;0.75;;;15.30;80.90;;;;;;4770049;29;20062;-81
2021/06/10 03:05:44;;;;;;;2.75;0.70;;;15.30;81.10;;;;;;4785762;29;20510;-81
2021/06/10 03:08:14;;;;;;;1.40;0.70;;;15.30;81.40;;;;;;4788320;29;20039;-81
2021/06/10 03:10:42;;;;;;;1.52;0.90;;;15.30;81.50;;;;;;4769126;29;20046;-81
2021/06/10 03:13:11;;;;;;;1.50;0.80;;;15.30;81.50;;;;;;4782561;29;20055;-82
2021/06/10 03:15:39;;;;;;;1.80;0.60;;;15.20;81.70;;;;;;4772573;29;20054;-81
2021/06/10 03:18:06;;;;;;;3.40;1.10;;;15.20;82.20;;;;;;4773742;29;20055;-82
2021/06/10 03:20:33;;;;;;;1.55;0.73;;;15.20;82.60;;;;;;4790227;29;20038;-81
2021/06/10 03:23:00;;;;;;;1.20;0.70;;;15.20;82.90;;;;;;4787295;29;20047;-82
2021/06/10 03:25:28;;;;;;;1.48;0.80;;;15.20;83.30;;;;;;4771177;29;20049;-83
2021/06/10 03:27:54;;;;;;;1.92;0.90;;;15.10;83.30;;;;;;4773221;29;20072;-82
2021/06/10 03:30:22;;;;;;;1.52;0.80;;;15.10;83.40;;;;;;4791450;29;20057;-87
2021/06/10 03:32:50;;;;;;;2.15;0.80;;;15.10;83.70;;;;;;4777143;29;20718;-87
2021/06/10 03:35:18;;;;;;;2.22;0.90;;;15.10;84.20;;;;;;4772125;29;20483;-88
2021/06/10 03:37:46;;;;;;;1.60;0.85;;;15.00;84.40;;;;;;4771925;29;20058;-88
2021/06/10 03:40:15;;;;;;;1.60;1.00;;;15.00;84.60;;;;;;4777781;29;20046;-84
2021/06/10 03:42:41;;;;;;;2.78;0.80;;;15.00;85.10;;;;;;4784447;29;20053;-86
2021/06/10 03:45:09;;;;;;;2.40;0.80;;;15.00;85.30;;;;;;4760639;29;20058;-86
2021/06/10 03:47:37;;;;;;;5.05;0.90;;;14.90;85.40;;;;;;4784821;29;20070;-85
2021/06/10 03:50:07;;;;;;;3.35;0.90;;;15.00;85.40;;;;;;4753095;29;20057;-85
2021/06/10 03:52:35;;;;;;;3.13;1.60;;;14.90;85.40;;;;;;4795936;29;20069;-86
2021/06/10 03:55:05;;;;;;;1.67;0.82;;;14.90;85.50;;;;;;4767415;29;20066;-85
2021/06/10 03:57:33;;;;;;;1.70;1.05;;;14.90;85.60;;;;;;4766007;29;20047;-85
2021/06/10 04:00:00;;;;;;;2.88;1.10;;;14.90;85.70;;;;;;4768863;29;20047;-82
2021/06/10 04:02:26;;;;;;;2.55;1.17;;;14.90;85.90;;;;;;4801501;29;20039;-81
2021/06/10 04:04:54;;;;;;;1.75;1.10;;;15.00;86.40;;;;;;4769589;29;20046;-81
2021/06/10 04:07:21;;;;;;;2.83;0.93;;;15.00;86.40;;;;;;4755892;29;20042;-81
2021/06/10 04:09:48;;;;;;;2.35;1.20;;;15.10;86.40;;;;;;4801744;29;20067;-81
2021/06/10 04:12:15;;;;;;;1.50;1.00;;;15.10;86.70;;;;;;4777378;29;20834;-85
2021/06/10 04:14:41;;;;;;;1.95;0.95;;;15.20;86.70;;;;;;4777216;29;20046;-85
2021/06/10 04:17:08;;;;;;;1.65;0.90;;;15.20;86.50;;;;;;4774879;29;20055;-85
2021/06/10 04:19:34;;;;;;;1.92;1.38;;;15.20;86.50;;;;;;4791943;29;20063;-84
2021/06/10 04:22:01;;;;;;;2.67;1.40;;;15.30;86.80;;;;;;4774043;29;20575;-80
2021/06/10 04:24:27;;;;;;;4.90;1.23;;;15.30;87.00;;;;;;4803734;29;20395;-82
2021/06/10 04:26:54;;;;;;;3.10;1.38;;;15.50;86.90;;;;;;4803131;29;20493;-82
2021/06/10 04:29:20;;;;;;;2.05;1.13;;;15.60;87.40;;;;;;4802491;29;20414;-82
2021/06/10 04:31:48;;;;;;;3.00;1.55;;;15.60;86.60;;;;;;4775134;29;20038;-82
2021/06/10 04:34:15;;;;;;;2.42;1.92;;;15.80;86.80;;;;;;4793026;29;20039;-82
2021/06/10 04:36:41;;;;;;;6.05;4.53;;;15.90;86.30;;;;;;4804417;29;20422;-82
2021/06/10 04:39:08;;;;;;;6.43;3.83;;;16.00;86.30;;;;;;4794550;29;20496;-83
2021/06/10 04:41:35;;;;;;;3.65;3.10;;;16.10;86.20;;;;;;4777068;29;20051;-83
2021/06/10 04:44:03;;;;;;;4.72;2.67;;;16.30;86.70;;;;;;4783350;29;20031;-83
2021/06/10 04:46:30;;;;;;;3.38;2.40;;;16.40;86.00;;;;;;4767544;29;20030;-83
2021/06/10 04:48:56;;;;;;;3.42;3.05;;;16.50;85.80;;;;;;4781865;29;20828;-84
2021/06/10 04:51:25;;;;;;;3.03;2.55;;;16.70;85.60;;;;;;4779475;29;20050;-84
2021/06/10 04:53:53;;;;;;;3.28;2.97;;;16.90;85.50;;;;;;4799913;29;20042;-83
2021/06/10 04:56:22;;;;;;;5.30;2.97;;;17.00;85.30;;;;;;4796838;29;20927;-84
2021/06/10 04:58:48;;;;;;;4.55;3.10;;;17.20;85.10;;;;;;4797740;29;20493;-83
2021/06/10 05:01:15;;;;;;;3.17;2.88;;;17.40;84.90;;;;;;4809075;29;20035;-84
2021/06/10 05:03:42;;;;;;;4.65;3.40;;;17.50;84.80;;;;;;4780915;29;20050;-84
2021/06/10 05:06:09;;;;;;;5.25;3.83;;;17.60;84.80;;;;;;4805094;29;20047;-83
2021/06/10 05:08:35;;;;;;;5.95;3.28;;;17.80;84.70;;;;;;4790825;29;20047;-84
2021/06/10 05:11:02;;;;;;;4.90;3.97;;;17.90;84.40;;;;;;4787315;29;20062;-83
2021/06/10 05:13:29;;;;;;;6.88;5.93;;;18.10;84.40;;;;;;4787350;29;20046;-81
2021/06/10 05:15:55;;;;;;;5.93;5.20;;;18.20;84.10;;;;;;4760673;29;20379;-83
2021/06/10 05:18:22;;;;;;;8.18;6.35;;;18.40;83.90;;;;;;4795439;29;20054;-84
2021/06/10 05:20:48;;;;;;;6.10;5.50;;;18.50;83.80;;;;;;4793100;29;20046;-83
2021/06/10 05:23:16;;;;;;;7.18;5.82;;;18.60;83.60;;;;;;4798338;29;20050;-82
2021/06/10 05:25:43;;;;;;;8.05;6.55;;;18.80;83.40;;;;;;4788171;29;20038;-83
2021/06/10 05:28:10;;;;;;;5.25;4.75;;;19.00;83.10;;;;;;4808234;29;20062;-83
2021/06/10 05:30:37;;;;;;;6.72;5.38;;;19.10;82.70;;;;;;4791302;29;20046;-82
2021/06/10 05:33:03;;;;;;;8.02;6.47;;;19.30;82.20;;;;;;4809194;29;20050;-82
2021/06/10 05:35:30;;;;;;;8.25;6.72;;;19.40;81.80;;;;;;4808266;29;20046;-83
2021/06/10 05:37:56;;;;;;;9.20;6.80;;;19.60;81.40;;;;;;4806588;29;20043;-83
2021/06/10 05:40:23;;;;;;;8.13;6.22;;;19.80;81.20;;;;;;4805536;29;20061;-83
2021/06/10 05:42:49;;;;;;;9.50;6.05;;;19.90;80.80;;;;;;4793622;29;20038;-83
2021/06/10 05:45:16;;;;;;;6.90;6.20;;;20.00;80.50;;;;;;4806616;29;20519;-79
2021/06/10 05:47:43;;;;;;;5.88;5.28;;;20.20;80.00;;;;;;4772093;29;20034;-83
2021/06/10 05:50:09;;;;;;;6.10;5.07;;;20.30;79.60;;;;;;4808953;29;20061;-84
2021/06/10 05:52:36;;;;;;;5.75;5.20;;;20.50;79.20;;;;;;4793427;29;20067;-85
2021/06/10 05:55:03;;;;;;;4.90;4.40;;;20.70;78.90;;;;;;4792613;29;20050;-84
2021/06/10 05:57:30;;;;;;;5.50;4.97;;;20.80;78.50;;;;;;4776783;29;20053;-85
2021/06/10 05:59:56;;;;;;;5.03;4.22;;;21.10;78.00;;;;;;4778822;29;20625;-85
2021/06/10 06:02:23;;;;;;;5.70;4.38;;;21.30;77.30;;;;;;4779746;29;20038;-83
2021/06/10 06:04:49;;;;;;;5.65;4.97;;;21.60;76.40;;;;;;4790081;29;20061;-83
2021/06/10 06:07:17;;;;;;;5.22;4.75;;;21.90;75.60;;;;;;4792096;29;20058;-83
2021/06/10 06:09:44;;;;;;;5.70;4.78;;;22.00;75.10;;;;;;4794957;29;20510;-81
2021/06/10 06:12:12;;;;;;;5.50;4.90;;;22.20;74.60;;;;;;4786421;29;20058;-81
2021/06/10 06:14:41;;;;;;;6.05;5.30;;;22.30;74.30;;;;;;4788520;29;20050;-80
2021/06/10 06:17:09;;;;;;;5.85;5.25;;;22.50;74.00;;;;;;4774235;29;20388;-81
2021/06/10 06:19:36;;;;;;;9.13;6.30;;;22.70;73.40;;;;;;4772128;29;20400;-81
2021/06/10 06:22:04;;;;;;;5.07;4.68;;;22.90;72.70;;;;;;4785175;29;20538;-84
2021/06/10 06:24:31;;;;;;;5.60;4.95;;;23.20;72.40;;;;;;4805460;29;20062;-86
2021/06/10 06:26:59;;;;;;;5.95;5.25;;;23.50;71.60;;;;;;4800876;29;20065;-80
2021/06/10 06:29:27;;;;;;;4.03;3.15;;;23.80;70.80;;;;;;4809814;29;20054;-80
2021/06/10 06:31:54;;;;;;;7.97;4.72;;;23.90;70.10;;;;;;4801445;29;20059;-80
2021/06/10 06:34:21;;;;;;;7.35;5.50;;;24.00;69.60;;;;;;4796724;29;20051;-80
2021/06/10 06:36:48;;;;;;;5.45;5.05;;;24.00;69.20;;;;;;4753363;29;20042;-80
2021/06/10 06:39:14;;;;;;;5.13;4.63;;;23.90;69.10;;;;;;4798274;29;20058;-79
2021/06/10 06:41:41;;;;;;;5.22;4.72;;;23.90;69.10;;;;;;4768021;29;20043;-79
2021/06/10 06:44:07;;;;;;;6.35;5.75;;;23.90;68.80;;;;;;4788481;29;20054;-79
2021/06/10 06:46:35;;;;;;;6.03;4.97;;;23.80;68.60;;;;;;4769198;29;20467;-80
2021/06/10 06:49:02;;;;;;;6.00;5.00;;;23.80;68.60;;;;;;4783092;29;20051;-84
2021/06/10 06:51:29;;;;;;;6.30;4.55;;;23.90;68.60;;;;;;4785162;29;20059;-84
2021/06/10 06:53:56;;;;;;;8.32;4.80;;;24.00;68.50;;;;;;4799437;29;20535;-84
2021/06/10 06:56:24;;;;;;;6.55;5.13;;;24.10;68.20;;;;;;4802428;29;20495;-80
2021/06/10 06:58:52;;;;;;;5.65;4.63;;;24.20;67.60;;;;;;4780509;29;20047;-83
2021/06/10 07:01:19;;;;;;;5.13;4.68;;;24.20;67.10;;;;;;4781614;29;20055;-81
2021/06/10 07:03:46;;;;;;;5.53;5.03;;;24.30;66.80;;;;;;4795739;29;20506;-82
2021/06/10 07:06:13;;;;;;;5.95;5.38;;;24.30;66.70;;;;;;4792603;29;20502;-82
2021/06/10 07:08:39;;;;;;;9.63;8.63;;;24.40;66.80;;;;;;4779368;29;20045;-82
2021/06/10 07:11:06;;;;;;;13.35;11.95;;;24.50;66.60;;;;;;4793571;29;20043;-82
2021/06/10 07:13:33;;;;;;;6.03;5.38;;;24.60;66.80;;;;;;4795521;29;20043;-81
2021/06/10 07:15:59;;;;;;;7.80;5.70;;;24.60;66.10;;;;;;4782217;29;20039;-81
2021/06/10 07:18:26;;;;;;;5.60;5.10;;;24.70;65.60;;;;;;4781541;29;20046;-80
2021/06/10 07:20:54;;;;;;;8.15;4.40;;;24.80;65.40;;;;;;4782133;29;20062;-80
2021/06/10 07:23:20;;;;;;;5.65;4.50;;;24.90;65.50;;;;;;4784250;29;20034;-80
2021/06/10 07:25:47;;;;;;;4.63;4.22;;;25.00;65.10;;;;;;4783223;29;20049;-81
2021/06/10 07:28:14;;;;;;;5.75;4.30;;;25.10;65.10;;;;;;4802155;29;20058;-80
2021/06/10 07:30:40;;;;;;;5.38;4.78;;;25.20;65.20;;;;;;4789200;29;20046;-81
2021/06/10 07:33:07;;;;;;;4.85;4.43;;;25.30;65.00;;;;;;4773430;29;20515;-81
2021/06/10 07:35:34;;;;;;;5.07;4.63;;;25.40;64.80;;;;;;4786583;29;20065;-81
2021/06/10 07:38:03;;;;;;;4.05;3.03;;;25.40;63.70;;;;;;4789249;29;20769;-81
2021/06/10 07:40:30;;;;;;;4.22;3.55;;;25.40;62.60;;;;;;4802370;29;20074;-80
2021/06/10 07:42:58;;;;;;;2.40;2.20;;;25.50;61.30;;;;;;4802929;29;20042;-81
2021/06/10 07:45:27;;;;;;;4.03;2.17;;;25.50;61.00;;;;;;4789617;29;20054;-81
2021/06/10 07:47:54;;;;;;;2.85;1.52;;;25.60;60.60;;;;;;4786735;29;20487;-83
2021/06/10 07:50:21;;;;;;;2.17;1.58;;;25.80;60.20;;;;;;4789275;29;20068;-83
2021/06/10 07:52:48;;;;;;;2.05;1.70;;;26.00;59.20;;;;;;4787364;29;20433;-83
2021/06/10 07:55:15;;;;;;;4.75;1.73;;;26.10;57.10;;;;;;4776915;29;20050;-82
2021/06/10 07:57:41;;;;;;;3.55;1.80;;;26.10;57.20;;;;;;4801902;29;20058;-83
2021/06/10 08:00:09;;;;;;;3.05;1.35;;;26.20;56.90;;;;;;4786091;29;20053;-83
2021/06/10 08:02:43;;;;;;;3.33;1.65;;;26.20;56.60;;;;;;4803637;29;20054;-84
2021/06/10 08:05:10;;;;;;;3.92;1.20;;;26.40;56.20;;;;;;4773645;29;20046;-83
2021/06/10 08:07:42;;;;;;;3.53;1.10;;;26.40;55.10;;;;;;4770269;29;20070;-83
2021/06/10 08:10:13;;;;;;;1.30;0.93;;;26.50;54.40;;;;;;4774395;29;20042;-83
2021/06/10 08:12:39;;;;;;;1.88;1.00;;;26.60;54.10;;;;;;4785596;29;20046;-82
2021/06/10 08:15:06;;;;;;;2.03;0.80;;;26.70;53.70;;;;;;4801308;29;20039;-83
2021/06/10 08:17:35;;;;;;;1.70;1.10;;;26.80;53.30;;;;;;4800008;29;20880;-83
2021/06/10 08:20:08;;;;;;;3.58;0.77;;;27.00;52.60;;;;;;4793630;29;20486;-84
2021/06/10 08:22:34;;;;;;;2.80;1.00;;;27.10;51.80;;;;;;4780121;29;20504;-82
2021/06/10 08:25:01;;;;;;;3.33;1.02;;;27.10;51.50;;;;;;4779770;29;20070;-85
2021/06/10 08:27:27;;;;;;;2.75;1.10;;;27.10;50.90;;;;;;4780964;29;20517;-89
2021/06/10 08:29:54;;;;;;;4.22;1.20;;;27.20;50.80;;;;;;4789518;29;20049;-86
2021/06/10 08:32:21;;;;;;;2.03;1.17;;;27.20;51.10;;;;;;4770648;29;20056;-84
2021/06/10 08:34:47;;;;;;;3.63;1.30;;;27.20;51.40;;;;;;4758102;29;20937;-85
2021/06/10 08:37:14;;;;;;;2.20;1.90;;;27.40;51.50;;;;;;4796504;29;20059;-84
2021/06/10 08:39:40;;;;;;;3.50;2.13;;;27.50;51.00;;;;;;4786198;29;20050;-82
2021/06/10 08:42:07;;;;;;;3.80;1.55;;;27.60;51.00;;;;;;4785998;29;20046;-81
2021/06/10 08:44:35;;;;;;;3.70;2.70;;;27.60;50.90;;;;;;4800347;29;20051;-81
2021/06/10 08:47:07;;;;;;;4.30;2.78;;;27.70;51.00;;;;;;4771920;29;20035;-82
2021/06/10 08:49:34;;;;;;;2.90;1.42;;;27.80;51.30;;;;;;4782916;29;20042;-82
2021/06/10 08:52:06;;;;;;;4.68;2.50;;;27.90;51.60;;;;;;4802949;29;20055;-82
2021/06/10 08:54:33;;;;;;;;;;;28.00;51.40;;;;;;4803000;29;20047;-81
2021/06/10 08:57:00;;;;;;;4.25;1.85;;;28.00;51.40;;;;;;4774034;29;19928;-82
2021/06/10 08:59:26;;;;;;;3.67;2.13;;;28.10;51.40;;;;;;4787192;29;20042;-82
2021/06/10 09:01:53;;;;;;;2.85;1.55;;;28.20;51.20;;;;;;4807349;29;20054;-83
2021/06/10 09:04:19;;;;;;;4.28;2.92;;;28.30;51.20;;;;;;4785031;29;20077;-83
2021/06/10 09:06:49;;;;;;;4.15;2.50;;;28.40;50.40;;;;;;4800651;29;20790;-82
2021/06/10 09:09:36;;;;;;;2.90;1.88;;;28.30;50.10;;;;;;4774971;29;20034;-82
2021/06/10 09:12:06;;;;;;;2.17;1.35;;;28.30;50.40;;;;;;4805325;29;20041;-83
2021/06/10 09:14:56;;;;;;;3.55;2.28;;;28.40;50.40;;;;;;4808371;29;20042;-82
2021/06/10 09:17:38;;;;;;;3.72;2.42;;;28.50;49.90;;;;;;4805974;29;20042;-82
2021/06/10 09:20:26;;;;;;;3.83;1.90;;;28.60;49.40;;;;;;4806022;29;20717;-83
2021/06/10 09:23:27;;;;;;;2.92;1.80;;;28.60;49.40;;;;;;4807434;29;20394;-82
2021/06/10 09:26:05;;;;;;;2.17;1.20;;;28.70;49.30;;;;;;4791972;29;20042;-83
2021/06/10 09:28:38;;;;;;;2.60;2.13;;;28.80;49.30;;;;;;4798890;29;20054;-83
2021/06/10 09:31:05;;;;;;;2.70;1.80;;;28.90;49.10;;;;;;4792952;29;20035;-83
2021/06/10 09:33:43;;;;;;;3.35;2.50;;;29.00;48.80;;;;;;4807892;29;20062;-83
2021/06/10 09:36:18;;;;;;;2.00;1.30;;;29.10;47.90;;;;;;4807468;29;20050;-80
2021/06/10 09:39:08;;;;;;;3.53;1.38;;;29.10;48.40;;;;;;4790455;29;20402;-81
2021/06/10 09:41:55;;;;;;;5.55;2.50;;;29.10;48.20;;;;;;4779772;29;20046;-81
2021/06/10 09:44:38;;;;;;;2.45;1.63;;;29.10;48.00;;;;;;4788392;29;20043;-81
2021/06/10 09:47:05;;;;;;;3.50;1.50;;;29.10;47.90;;;;;;4794820;29;20062;-81
2021/06/10 09:49:32;;;;;;;3.03;1.70;;;29.20;48.10;;;;;;4802115;29;20392;-82
2021/06/10 09:51:58;;;;;;;2.50;1.40;;;29.30;47.70;;;;;;4778839;29;20073;-81
2021/06/10 09:54:47;;;;;;;2.70;1.73;;;29.40;47.70;;;;;;4795500;29;20832;-83
2021/06/10 09:57:15;;;;;;;2.85;1.92;;;29.50;47.60;;;;;;4805442;29;20035;-82
2021/06/10 09:59:51;;;;;;;6.13;1.50;;;29.60;47.70;;;;;;4801268;29;20061;-82
2021/06/10 10:02:19;;;;;;;4.57;2.10;;;29.70;48.00;;;;;;4805053;29;20426;-83
2021/06/10 10:04:59;;;;;;;4.90;1.90;;;29.80;47.50;;;;;;4801176;29;20053;-82
2021/06/10 10:07:27;;;;;;;2.83;1.48;;;29.80;47.20;;;;;;4785616;29;20039;-82
2021/06/10 10:09:57;;;;;;;4.75;1.60;;;29.90;47.40;;;;;;4783421;29;20519;-81
2021/06/10 10:12:29;;;;;;;3.47;1.55;;;29.90;47.40;;;;;;4787288;29;20058;-81
2021/06/10 10:14:57;;;;;;;2.38;1.52;;;29.90;46.90;;;;;;4784649;29;20514;-81
2021/06/10 10:17:26;;;;;;;5.18;1.13;;;30.00;47.10;;;;;;4784250;29;20483;-82
2021/06/10 10:19:56;;;;;;;4.93;2.10;;;30.10;47.30;;;;;;4800699;29;20046;-81
2021/06/10 10:22:23;;;;;;;3.45;1.88;;;30.10;46.60;;;;;;4782575;29;20043;-81
2021/06/10 10:24:53;;;;;;;2.38;1.77;;;30.20;46.60;;;;;;4781555;29;20046;-81
2021/06/10 10:27:21;;;;;;;4.40;1.38;;;30.10;46.30;;;;;;4785956;29;20057;-82
2021/06/10 10:29:49;;;;;;;2.30;1.95;;;30.10;46.50;;;;;;4802836;29;20060;-82
2021/06/10 10:32:24;;;;;;;2.88;1.40;;;30.20;46.50;;;;;;4801914;29;20046;-83
2021/06/10 10:34:51;;;;;;;4.15;1.35;;;30.30;46.90;;;;;;4807573;29;20070;-83
2021/06/10 10:37:23;;;;;;;3.03;1.13;;;30.50;46.70;;;;;;4790829;29;20050;-83
2021/06/10 10:39:53;;;;;;;3.78;2.33;;;30.60;46.00;;;;;;4792641;29;20855;-83
2021/06/10 10:42:34;;;;;;;7.10;6.40;;;30.70;44.60;;;;;;4790193;29;20498;-83
2021/06/10 10:45:10;;;;;;;10.80;9.85;;;30.70;44.60;;;;;;4805009;29;20471;-83
2021/06/10 10:48:05;;;;;;;3.88;2.90;;;30.90;45.10;;;;;;4788233;29;20049;-83
2021/06/10 10:50:38;;;;;;;4.85;2.00;;;31.20;45.10;;;;;;4806305;29;20055;-84
2021/06/10 10:53:17;;;;;;;3.83;2.25;;;31.40;44.00;;;;;;4809186;29;20046;-84
2021/06/10 10:55:46;;;;;;;6.20;4.32;;;31.60;43.80;;;;;;4807667;29;20491;-84
2021/06/10 10:58:18;;;;;;;6.20;2.60;;;31.70;43.40;;;;;;4791049;29;20034;-83
2021/06/10 11:00:47;;;;;;;3.65;3.35;;;31.80;43.50;;;;;;4776924;29;20042;-85
2021/06/10 11:03:18;;;;;;;2.88;0.90;;;32.10;42.70;;;;;;4792598;29;20505;-83
2021/06/10 11:05:46;;;;;;;2.65;0.90;;;32.30;41.10;;;;;;4806604;29;20061;-83
2021/06/10 11:08:13;;;;;;;1.60;0.90;;;32.50;41.50;;;;;;4805496;29;20062;-83
2021/06/10 11:10:39;;;;;;;3.03;1.80;;;32.90;40.40;;;;;;4776206;29;20073;-82
2021/06/10 11:13:23;;;;;;;1.98;0.80;;;33.10;38.40;;;;;;4806014;29;20069;-81
2021/06/10 11:15:51;;;;;;;2.58;0.88;;;33.20;39.40;;;;;;4788799;29;20051;-84
2021/06/10 11:18:51;;;;;;;1.43;0.60;;;33.40;39.40;;;;;;4806183;29;20058;-83
2021/06/10 11:21:39;;;;;;;3.22;0.85;;;33.70;38.50;;;;;;4806352;29;20054;-82
2021/06/10 11:24:16;;;;;;;2.10;0.85;;;34.10;38.40;;;;;;4792044;29;20475;-82
2021/06/10 11:26:47;;;;;;;1.63;0.70;;;34.50;36.90;;;;;;4798957;29;20035;-80
2021/06/10 11:29:16;;;;;;;1.90;0.75;;;34.70;36.50;;;;;;4802039;29;20045;-81
2021/06/10 11:31:43;;;;;;;1.85;0.73;;;35.00;36.20;;;;;;4795865;29;20062;-83
2021/06/10 11:34:29;;;;;;;1.20;0.65;;;35.30;35.70;;;;;;4774862;29;20079;-82
2021/06/10 11:36:57;;;;;;;2.53;0.70;;;35.50;35.20;;;;;;4807733;29;20054;-83
2021/06/10 11:39:28;;;;;;;3.20;0.52;;;35.70;35.30;;;;;;4792066;29;20051;-82
2021/06/10 11:42:05;;;;;;;1.30;0.55;;;36.00;35.20;;;;;;4808362;29;20056;-82
2021/06/10 11:44:43;;;;;;;1.63;0.65;;;36.30;34.30;;;;;;4801982;29;20035;-82
2021/06/10 11:47:22;;;;;;;1.77;0.70;;;36.50;34.00;;;;;;4799370;29;20043;-82
2021/06/10 11:49:49;;;;;;;1.35;0.73;;;36.80;33.50;;;;;;4781789;29;20043;-83
2021/06/10 11:52:16;;;;;;;1.63;0.80;;;37.00;33.00;;;;;;4794540;29;20932;-83
2021/06/10 11:55:06;;;;;;;1.75;1.00;;;37.20;33.10;;;;;;4791214;29;20050;-83
2021/06/10 11:57:33;;;;;;;4.90;2.95;;;37.20;31.80;;;;;;4803135;29;20046;-84
2021/06/10 12:00:08;;;;;;;4.03;1.27;;;37.20;32.90;;;;;;4788714;29;20054;-85
2021/06/10 12:02:41;;;;;;;3.95;1.17;;;37.40;32.10;;;;;;4786048;29;20133;-83
2021/06/10 12:05:15;;;;;;;1.75;0.60;;;37.70;30.20;;;;;;4789458;29;20054;-85
2021/06/10 12:07:42;;;;;;;3.95;0.43;;;37.80;30.20;;;;;;4768200;29;20066;-81
2021/06/10 12:10:19;;;;;;;3.10;0.75;;;38.00;30.90;;;;;;4802850;29;20047;-84
2021/06/10 12:12:48;;;;;;;1.80;0.60;;;38.20;29.30;;;;;;4789623;29;20080;-84
2021/06/10 12:15:18;;;;;;;1.50;0.70;;;38.20;29.40;;;;;;4776878;29;20061;-85
2021/06/10 12:18:06;;;;;;;2.55;0.70;;;38.50;30.40;;;;;;4803287;29;20518;-84
2021/06/10 12:20:44;;;;;;;1.63;0.50;;;38.80;30.70;;;;;;4803226;29;20054;-87
2021/06/10 12:23:15;;;;;;;0.80;0.50;;;39.00;29.40;;;;;;4785115;29;20063;-88
2021/06/10 12:25:56;;;;;;;1.20;0.60;;;39.20;28.90;;;;;;4787033;29;20055;-88
2021/06/10 12:28:42;;;;;;;2.97;0.52;;;39.40;28.60;;;;;;4787281;29;20467;-87
2021/06/10 12:31:20;;;;;;;1.67;0.57;;;39.50;28.20;;;;;;4776728;29;20505;-88
2021/06/10 12:33:49;;;;;;;1.60;0.68;;;39.80;28.30;;;;;;4792672;29;20045;-87
2021/06/10 12:36:24;;;;;;;1.73;0.90;;;40.10;29.10;;;;;;4794991;29;20047;-88
2021/06/10 12:39:11;;;;;;;2.75;0.80;;;40.40;28.70;;;;;;4790882;29;20042;-88
2021/06/10 12:41:46;;;;;;;1.40;0.80;;;40.60;28.20;;;;;;4778855;29;20491;-88
2021/06/10 12:44:17;;;;;;;1.30;0.73;;;40.70;28.30;;;;;;4804268;29;20051;-87
2021/06/10 12:46:51;;;;;;;;;;;40.80;28.60;;;;;;4788725;29;20043;-88
2021/06/10 12:49:38;;;;;;;1.30;0.77;;;41.00;28.50;;;;;;4789896;29;19917;-87
2021/06/10 12:52:18;;;;;;;2.67;0.80;;;41.20;28.90;;;;;;4790508;29;20050;-87
2021/06/10 12:54:49;;;;;;;2.28;0.68;;;41.40;27.90;;;;;;4796405;29;20066;-87
2021/06/10 12:57:27;;;;;;;1.00;0.60;;;41.40;27.80;;;;;;4792064;29;20058;-87
2021/06/10 12:59:56;;;;;;;1.75;0.63;;;41.40;27.90;;;;;;4811592;29;20051;-86
2021/06/10 13:02:24;;;;;;;2.38;1.17;;;41.60;27.80;;;;;;4807400;29;20038;-88